Time;durP1;ratioP1;P1;durP2;ratioP2;P2;SDS_P1;SDS_P2;PMS_P1;PMS_P2;Temp;Humidity;BMP_temperature;BMP_pressure;BME280_temperature;BME280_humidity;BME280_pressure;Samples;Min_cycle;Max_cycle;Signal;HPM_P1;HPM_P2
2021/08/03 00:02:24;;;;;;;11.33;5.30;;;14.80;99.90;;;;;;5022737;28;20389;-75
2021/08/03 00:04:55;;;;;;;6.47;4.70;;;14.80;99.90;;;;;;5028185;28;20844;-76
2021/08/03 00:07:23;;;;;;;6.40;4.80;;;14.80;99.90;;;;;;5034086;28;20400;-75
2021/08/03 00:09:56;;;;;;;9.90;5.00;;;14.80;99.90;;;;;;5023414;28;20419;-76
2021/08/03 00:13:07;;;;;;;7.00;4.80;;;14.90;99.90;;;;;;5034010;28;20435;-76
2021/08/03 00:15:47;;;;;;;6.70;4.90;;;14.90;99.90;;;;;;5033786;28;20512;-75
2021/08/03 00:18:17;;;;;;;6.27;4.67;;;14.90;99.90;;;;;;5034123;28;20402;-75
2021/08/03 00:20:44;;;;;;;7.40;5.27;;;15.10;99.90;;;;;;5033843;28;20486;-76
2021/08/03 00:23:10;;;;;;;10.30;4.83;;;15.00;99.90;;;;;;5033878;28;20502;-76
2021/08/03 00:25:44;;;;;;;8.93;4.60;;;14.90;99.90;;;;;;5033933;28;20402;-76
2021/08/03 00:28:49;;;;;;;10.80;5.47;;;15.00;99.90;;;;;;5018010;28;20962;-79
2021/08/03 00:35:07;;;;;;;11.60;4.30;;;15.00;99.90;;;;;;5013528;28;20500;-79
2021/08/03 00:37:56;;;;;;;7.70;4.40;;;15.00;99.90;;;;;;5028715;28;20422;-79
2021/08/03 00:40:24;;;;;;;12.90;5.57;;;15.00;99.90;;;;;;5021109;28;20390;-79
2021/08/03 00:46:11;;;;;;;4.87;4.27;;;15.00;99.90;;;;;;5013591;28;20353;-79
2021/08/03 00:48:38;;;;;;;9.73;4.87;;;15.00;99.90;;;;;;5013702;28;20964;-79
2021/08/03 00:55:02;;;;;;;11.43;5.43;;;15.00;99.90;;;;;;5036959;28;20465;-80
2021/08/03 01:01:08;;;;;;;7.67;4.37;;;15.00;99.90;;;;;;5032085;28;20442;-79
2021/08/03 01:04:15;;;;;;;13.17;5.43;;;15.00;99.90;;;;;;5019819;28;20414;-79
2021/08/03 01:10:29;;;;;;;6.93;4.67;;;15.00;99.90;;;;;;5019010;28;20370;-79
2021/08/03 01:13:08;;;;;;;8.87;5.20;;;15.10;99.90;;;;;;5017706;28;20396;-75
2021/08/03 01:15:55;;;;;;;8.17;5.67;;;15.10;99.90;;;;;;5015817;28;20442;-75
2021/08/03 01:19:01;;;;;;;9.23;4.70;;;15.10;99.90;;;;;;5017339;28;20483;-76
2021/08/03 01:21:30;;;;;;;10.77;6.23;;;15.10;99.90;;;;;;5017773;28;20474;-76
2021/08/03 01:24:26;;;;;;;23.43;5.87;;;15.10;99.90;;;;;;5017253;28;20374;-76
2021/08/03 01:27:31;;;;;;;10.20;5.23;;;15.10;99.90;;;;;;5017686;28;20378;-79
2021/08/03 01:34:07;;;;;;;8.13;5.30;;;15.10;99.90;;;;;;5024506;28;20433;-79
2021/08/03 01:36:46;;;;;;;17.93;6.20;;;15.00;99.90;;;;;;5036533;28;20381;-80
2021/08/03 01:39:15;;;;;;;11.20;5.83;;;15.00;99.90;;;;;;5036514;28;20556;-79
2021/08/03 01:41:48;;;;;;;12.63;6.20;;;15.20;99.90;;;;;;5035157;28;20463;-77
2021/08/03 01:44:15;;;;;;;8.60;5.93;;;15.10;99.90;;;;;;5036621;28;20366;-76
2021/08/03 01:46:42;;;;;;;14.60;5.77;;;15.10;99.90;;;;;;5036465;28;20368;-76
2021/08/03 01:49:11;;;;;;;11.47;6.20;;;15.10;99.90;;;;;;5036219;28;20403;-75
2021/08/03 01:51:39;;;;;;;9.30;5.80;;;15.10;99.90;;;;;;5036409;28;20473;-75
2021/08/03 01:54:05;;;;;;;14.50;6.17;;;15.00;99.90;;;;;;5036518;28;20419;-76
2021/08/03 01:56:51;;;;;;;16.17;6.17;;;15.00;99.90;;;;;;5036617;28;20845;-76
2021/08/03 01:59:18;;;;;;;12.77;5.60;;;15.00;99.90;;;;;;5034917;28;20404;-76
2021/08/03 02:01:52;;;;;;;13.97;5.67;;;15.00;99.90;;;;;;5030298;28;20574;-76
2021/08/03 02:04:23;;;;;;;11.07;6.10;;;15.00;99.90;;;;;;5024034;28;20414;-76
2021/08/03 02:06:56;;;;;;;10.63;5.73;;;15.00;1.00;;;;;;5036245;28;20728;-76
2021/08/03 02:09:32;;;;;;;14.80;5.83;;;15.00;1.00;;;;;;5036009;28;20415;-76
2021/08/03 02:12:32;;;;;;;11.20;5.30;;;15.00;1.00;;;;;;5036467;28;20531;-79
2021/08/03 02:18:20;;;;;;;8.57;5.73;;;14.90;1.00;;;;;;5035539;28;20414;-79
2021/08/03 02:21:17;;;;;;;10.87;5.57;;;14.90;1.00;;;;;;5035439;28;20393;-79
2021/08/03 02:23:51;;;;;;;11.30;5.43;;;14.80;1.00;;;;;;5035812;28;20176;-79
2021/08/03 02:26:26;;;;;;;7.90;5.20;;;14.80;1.00;;;;;;5035499;28;21037;-79
2021/08/03 02:29:03;;;;;;;9.33;5.60;;;14.70;1.00;;;;;;5035724;28;20369;-75
2021/08/03 02:31:49;;;;;;;19.13;6.17;;;14.60;1.00;;;;;;5036024;28;20420;-75
2021/08/03 02:34:26;;;;;;;11.50;6.50;;;14.60;1.00;;;;;;5035329;28;20378;-76
2021/08/03 02:37:00;;;;;;;9.50;5.87;;;14.60;1.00;;;;;;5035263;28;20905;-76
2021/08/03 02:39:27;;;;;;;12.37;5.97;;;14.60;1.00;;;;;;5035660;28;20424;-76
2021/08/03 02:42:03;;;;;;;8.83;5.40;;;14.50;1.00;;;;;;5035521;28;20386;-76
2021/08/03 02:44:41;;;;;;;16.63;5.07;;;14.50;1.00;;;;;;5020127;28;20922;-76
2021/08/03 02:47:18;;;;;;;12.10;5.67;;;14.50;1.00;;;;;;5015707;28;20400;-75
2021/08/03 02:50:06;;;;;;;11.03;5.50;;;14.40;1.00;;;;;;5015431;28;20408;-75
2021/08/03 02:52:36;;;;;;;13.63;6.10;;;14.40;1.00;;;;;;5025860;28;20965;-75
2021/08/03 02:55:18;;;;;;;8.00;4.97;;;14.30;1.00;;;;;;5035161;28;20527;-76
2021/08/03 02:57:50;;;;;;;7.43;5.23;;;14.30;1.00;;;;;;5035351;28;20417;-75
2021/08/03 03:00:17;;;;;;;7.70;5.50;;;14.30;1.00;;;;;;5032478;28;20405;-76
2021/08/03 03:02:45;;;;;;;9.43;5.63;;;14.20;1.00;;;;;;5027838;28;20519;-75
2021/08/03 03:05:25;;;;;;;12.10;5.00;;;14.20;1.00;;;;;;5019824;28;20416;-76
2021/08/03 03:08:09;;;;;;;7.67;5.17;;;14.10;1.00;;;;;;5030314;28;20831;-76
2021/08/03 03:10:38;;;;;;;11.57;5.70;;;14.20;1.00;;;;;;5034583;28;20446;-76
2021/08/03 03:13:42;;;;;;;11.67;5.90;;;14.10;1.00;;;;;;5034290;28;20369;-76
2021/08/03 03:16:10;;;;;;;13.00;5.57;;;14.00;1.00;;;;;;5024248;28;20541;-75
2021/08/03 03:18:38;;;;;;;14.33;5.20;;;14.00;1.00;;;;;;5034681;28;20395;-75
2021/08/03 03:21:08;;;;;;;11.67;5.00;;;14.00;1.00;;;;;;5034528;28;20751;-75
2021/08/03 03:23:38;;;;;;;9.37;5.10;;;14.00;1.00;;;;;;5035008;28;20852;-76
2021/08/03 03:26:15;;;;;;;9.03;5.10;;;14.00;1.00;;;;;;5034958;28;20366;-76
2021/08/03 03:28:45;;;;;;;11.53;5.37;;;13.80;1.00;;;;;;5034733;28;20395;-75
2021/08/03 03:31:27;;;;;;;11.33;5.20;;;13.80;1.00;;;;;;5033805;28;20425;-75
2021/08/03 03:34:14;;;;;;;13.03;5.30;;;13.80;1.00;;;;;;5034342;28;20403;-75
2021/08/03 03:36:42;;;;;;;8.67;5.20;;;13.70;1.00;;;;;;5017907;28;20423;-76
2021/08/03 03:39:15;;;;;;;10.47;4.70;;;13.70;1.00;;;;;;5016095;28;20424;-75
2021/08/03 03:41:48;;;;;;;9.27;5.40;;;13.70;1.00;;;;;;5014660;28;20402;-76
2021/08/03 03:48:02;;;;;;;10.53;5.43;;;13.60;1.00;;;;;;5014214;28;20378;-79
2021/08/03 03:53:54;;;;;;;9.00;5.13;;;13.60;1.00;;;;;;5020119;28;20393;-85
2021/08/03 03:57:07;;;;;;;15.80;5.30;;;13.60;1.00;;;;;;5032878;28;20459;-85
2021/08/03 03:59:42;;;;;;;9.10;5.00;;;13.60;1.00;;;;;;5021773;28;20398;-80
2021/08/03 04:02:21;;;;;;;10.33;5.23;;;13.60;1.00;;;;;;5020682;28;20817;-80
2021/08/03 04:04:48;;;;;;;8.93;5.03;;;14.30;1.00;;;;;;5032266;28;20819;-77
2021/08/03 04:07:38;;;;;;;10.17;5.53;;;13.70;1.00;;;;;;5033925;28;20754;-76
2021/08/03 04:10:08;;;;;;;8.90;5.50;;;13.70;1.00;;;;;;5032797;28;20525;-76
2021/08/03 04:12:38;;;;;;;9.23;5.97;;;13.70;1.00;;;;;;5033003;28;20415;-76
2021/08/03 04:15:04;;;;;;;9.10;5.03;;;13.80;1.00;;;;;;5033080;28;20480;-77
2021/08/03 04:18:02;;;;;;;8.57;5.27;;;13.80;1.00;;;;;;5033378;28;20402;-76
2021/08/03 04:20:56;;;;;;;17.03;5.23;;;13.80;1.00;;;;;;5033285;28;20381;-76
2021/08/03 04:23:21;;;;;;;7.83;5.50;;;13.90;1.00;;;;;;5033552;28;20382;-76
2021/08/03 04:25:56;;;;;;;7.30;5.07;;;14.00;1.00;;;;;;5033407;28;20391;-76
2021/08/03 04:28:50;;;;;;;10.23;5.20;;;14.00;1.00;;;;;;5033995;28;20152;-77
2021/08/03 04:31:20;;;;;;;8.00;5.53;;;14.10;1.00;;;;;;5033370;28;20381;-76
2021/08/03 04:33:56;;;;;;;14.60;5.43;;;14.10;1.00;;;;;;5026002;28;20747;-76
2021/08/03 04:36:34;;;;;;;14.53;5.57;;;14.10;1.00;;;;;;5014122;28;20439;-76
2021/08/03 04:39:00;;;;;;;9.10;5.57;;;14.90;1.00;;;;;;5026974;28;20437;-76
2021/08/03 04:41:26;;;;;;;8.13;5.70;;;14.20;1.00;;;;;;5033752;28;20403;-76
2021/08/03 04:43:52;;;;;;;7.43;5.17;;;14.30;1.00;;;;;;5033812;28;20232;-76
2021/08/03 04:47:08;;;;;;;8.07;5.67;;;14.30;1.00;;;;;;5033508;28;20709;-76
2021/08/03 04:49:56;;;;;;;16.07;5.60;;;14.40;1.00;;;;;;5033454;28;20243;-76
2021/08/03 04:52:56;;;;;;;10.50;5.80;;;14.40;1.00;;;;;;5032001;28;20397;-76
2021/08/03 04:55:38;;;;;;;7.23;5.03;;;14.50;1.00;;;;;;5028564;28;20791;-77
2021/08/03 04:58:32;;;;;;;8.30;5.70;;;14.60;1.00;;;;;;5033654;28;20494;-76
2021/08/03 05:00:57;;;;;;;9.23;5.40;;;14.70;1.00;;;;;;5026040;28;20374;-76
2021/08/03 05:03:38;;;;;;;5.83;4.90;;;14.70;1.00;;;;;;5017116;28;20386;-76
2021/08/03 05:06:32;;;;;;;8.93;6.30;;;14.80;1.00;;;;;;5013766;28;20219;-77
2021/08/03 05:09:14;;;;;;;11.50;5.30;;;14.80;1.00;;;;;;5028456;28;20394;-76
2021/08/03 05:11:44;;;;;;;11.37;5.40;;;14.90;1.00;;;;;;5013693;28;20403;-77
2021/08/03 05:14:14;;;;;;;9.87;5.33;;;14.90;1.00;;;;;;5024865;28;20385;-76
2021/08/03 05:16:44;;;;;;;14.57;7.00;;;15.00;1.00;;;;;;5025807;28;20419;-83
2021/08/03 05:19:14;;;;;;;6.50;4.60;;;15.10;1.00;;;;;;5031440;28;20430;-85
2021/08/03 05:25:02;;;;;;;7.87;5.37;;;15.20;1.00;;;;;;5033163;28;20898;-83
2021/08/03 05:37:35;;;;;;;9.93;5.23;;;15.40;1.00;;;;;;5028892;28;20924;-80
2021/08/03 05:40:05;;;;;;;6.43;5.10;;;15.60;1.00;;;;;;5032507;28;20424;-79
2021/08/03 05:43:07;;;;;;;7.57;5.13;;;15.60;1.00;;;;;;5031741;28;20894;-79
2021/08/03 05:45:38;;;;;;;9.80;5.03;;;15.70;1.00;;;;;;5035263;28;20417;-79
2021/08/03 05:48:38;;;;;;;8.97;5.40;;;15.80;1.00;;;;;;5031661;28;20398;-79
2021/08/03 05:51:20;;;;;;;12.23;5.77;;;15.80;1.00;;;;;;5016329;28;20435;-79
2021/08/03 05:54:02;;;;;;;11.23;5.70;;;15.80;1.00;;;;;;5025522;28;20773;-79
2021/08/03 05:56:27;;;;;;;11.10;5.50;;;15.90;1.00;;;;;;5027139;28;20466;-79
2021/08/03 05:58:53;;;;;;;9.43;5.30;;;16.00;1.00;;;;;;5015613;28;20371;-79
2021/08/03 06:01:19;;;;;;;6.80;5.40;;;16.00;1.00;;;;;;5035385;28;20169;-76
2021/08/03 06:03:44;;;;;;;8.10;5.10;;;16.20;1.00;;;;;;5034483;28;20626;-76
2021/08/03 06:06:14;;;;;;;15.97;6.40;;;16.30;1.00;;;;;;5021463;28;20522;-77
2021/08/03 06:08:43;;;;;;;6.57;5.10;;;16.50;1.00;;;;;;5029829;28;20208;-77
2021/08/03 06:11:16;;;;;;;9.73;5.00;;;16.50;1.00;;;;;;5034449;28;20488;-77
2021/08/03 06:13:46;;;;;;;10.27;5.20;;;16.60;1.00;;;;;;5031466;28;20450;-76
2021/08/03 06:16:16;;;;;;;7.80;4.80;;;16.80;1.00;;;;;;5034787;28;20443;-79
2021/08/03 06:18:44;;;;;;;6.30;4.60;;;16.90;1.00;;;;;;5024355;28;20442;-79
2021/08/03 06:21:10;;;;;;;7.13;4.60;;;;;;;;;;5030602;28;20432;-79
2021/08/03 06:23:37;;;;;;;6.17;4.70;;;17.10;1.00;;;;;;5034250;28;20880;-79
2021/08/03 06:26:03;;;;;;;5.80;4.60;;;17.30;1.00;;;;;;5034410;28;20398;-79
2021/08/03 06:28:29;;;;;;;7.90;4.70;;;17.50;1.00;;;;;;5027538;28;20933;-79
2021/08/03 06:30:55;;;;;;;4.93;4.47;;;17.60;1.00;;;;;;5033756;28;20388;-77
2021/08/03 06:33:22;;;;;;;5.23;4.53;;;17.70;1.00;;;;;;5026057;28;20780;-76
2021/08/03 06:35:50;;;;;;;8.27;4.70;;;17.80;1.00;;;;;;5034435;28;20249;-76
2021/08/03 06:38:17;;;;;;;5.33;4.57;;;17.90;1.00;;;;;;5027271;28;20416;-76
2021/08/03 06:41:13;;;;;;;7.33;4.93;;;18.00;1.00;;;;;;5027384;28;20412;-76
2021/08/03 06:43:49;;;;;;;10.60;4.30;;;18.10;1.00;;;;;;4991977;28;20912;-76
2021/08/03 06:46:15;;;;;;;7.43;4.20;;;18.40;1.00;;;;;;4992628;28;20900;-76
2021/08/03 06:48:50;;;;;;;10.40;5.20;;;18.40;1.00;;;;;;4976694;28;20471;-76
2021/08/03 06:51:17;;;;;;;5.30;4.27;;;18.40;1.00;;;;;;4987420;28;20188;-76
2021/08/03 06:53:46;;;;;;;4.90;3.77;;;18.70;1.00;;;;;;4991301;28;20435;-76
2021/08/03 06:56:19;;;;;;;5.57;4.27;;;18.80;1.00;;;;;;4992186;28;20475;-76
2021/08/03 06:59:10;;;;;;;8.87;4.63;;;18.90;1.00;;;;;;4991135;28;20515;-76
2021/08/03 07:01:58;;;;;;;4.90;3.90;;;19.10;1.00;;;;;;4992369;28;20436;-76
2021/08/03 07:04:36;;;;;;;6.67;4.80;;;19.10;1.00;;;;;;4989747;28;20420;-76
2021/08/03 07:07:02;;;;;;;6.67;4.67;;;19.20;1.00;;;;;;4990872;28;20443;-76
2021/08/03 07:09:30;;;;;;;4.77;4.27;;;19.40;1.00;;;;;;4989959;28;20428;-76
2021/08/03 07:11:56;;;;;;;6.63;4.33;;;19.50;1.00;;;;;;4973928;28;20468;-76
2021/08/03 07:14:26;;;;;;;7.30;4.53;;;19.60;1.00;;;;;;4976189;28;20423;-76
2021/08/03 07:16:53;;;;;;;6.23;4.57;;;19.60;1.00;;;;;;4991782;28;20435;-80
2021/08/03 07:19:22;;;;;;;5.20;4.27;;;19.80;1.00;;;;;;4988386;28;20843;-79
2021/08/03 07:21:51;;;;;;;6.47;4.83;;;19.80;1.00;;;;;;5016664;28;20781;-79
2021/08/03 07:24:18;;;;;;;12.13;4.60;;;20.00;1.00;;;;;;5033612;28;20411;-80
2021/08/03 07:26:44;;;;;;;11.00;4.77;;;20.10;1.00;;;;;;5027573;28;20428;-79
2021/08/03 07:29:10;;;;;;;7.33;5.30;;;20.00;1.00;;;;;;5027931;28;20458;-80
2021/08/03 07:31:36;;;;;;;6.57;4.83;;;20.10;1.00;;;;;;5032115;28;20423;-79
2021/08/03 07:34:04;;;;;;;5.10;4.10;;;20.10;1.00;;;;;;5033081;28;20165;-79
2021/08/03 07:36:30;;;;;;;5.07;4.60;;;20.30;1.00;;;;;;5032741;28;20538;-80
2021/08/03 07:38:58;;;;;;;4.37;3.90;;;20.60;1.00;;;;;;5033687;28;20945;-80
2021/08/03 07:41:27;;;;;;;7.90;4.47;;;20.60;1.00;;;;;;5032233;28;20185;-79
2021/08/03 07:43:53;;;;;;;5.37;4.20;;;20.70;1.00;;;;;;5033212;28;20393;-79
2021/08/03 07:46:19;;;;;;;8.03;4.40;;;20.70;1.00;;;;;;5019256;28;20882;-79
2021/08/03 07:48:50;;;;;;;8.10;4.63;;;20.70;1.00;;;;;;5021428;28;20531;-79
2021/08/03 07:51:17;;;;;;;11.77;4.90;;;20.70;1.00;;;;;;5021162;28;20549;-79
2021/08/03 07:53:46;;;;;;;9.87;5.27;;;20.70;1.00;;;;;;5024832;28;20419;-75
2021/08/03 07:56:15;;;;;;;5.80;5.20;;;20.70;1.00;;;;;;5033753;28;20502;-75
2021/08/03 07:58:44;;;;;;;8.70;6.10;;;20.80;1.00;;;;;;5028449;28;20754;-75
2021/08/03 08:01:20;;;;;;;6.73;5.03;;;20.90;1.00;;;;;;5014522;28;20398;-76
2021/08/03 08:03:46;;;;;;;7.10;6.23;;;21.00;1.00;;;;;;5031046;28;20783;-76
2021/08/03 08:06:13;;;;;;;11.80;5.70;;;21.10;1.00;;;;;;5030930;28;20421;-75
2021/08/03 08:08:50;;;;;;;6.17;5.30;;;21.10;1.00;;;;;;5021434;28;20417;-75
2021/08/03 08:11:16;;;;;;;6.00;5.40;;;21.20;1.00;;;;;;5017486;28;20484;-75
2021/08/03 08:13:42;;;;;;;6.13;5.10;;;21.20;1.00;;;;;;5024729;28;20452;-75
2021/08/03 08:16:08;;;;;;;8.90;4.70;;;21.20;1.00;;;;;;5033992;28;20196;-79
2021/08/03 08:19:14;;;;;;;5.77;4.43;;;20.90;1.00;;;;;;5033449;28;20396;-79
2021/08/03 08:21:50;;;;;;;11.00;5.37;;;20.80;1.00;;;;;;5028849;28;20446;-80
2021/08/03 08:24:38;;;;;;;6.10;5.40;;;20.80;1.00;;;;;;5016400;28;20479;-79
2021/08/03 08:27:04;;;;;;;9.13;5.60;;;20.70;1.00;;;;;;5020107;28;20491;-80
2021/08/03 08:29:32;;;;;;;6.43;5.57;;;20.20;1.00;;;;;;5031728;28;20523;-79
2021/08/03 08:32:44;;;;;;;8.07;6.27;;;20.20;1.00;;;;;;5031157;28;20452;-79
2021/08/03 08:35:11;;;;;;;10.47;7.00;;;20.00;1.00;;;;;;5013256;28;20444;-80
2021/08/03 08:37:44;;;;;;;8.03;6.53;;;19.60;1.00;;;;;;5035042;28;20506;-80
2021/08/03 08:40:18;;;;;;;9.33;7.00;;;19.40;1.00;;;;;;5032979;28;20399;-79
2021/08/03 08:42:46;;;;;;;8.37;7.43;;;19.30;1.00;;;;;;5013145;28;20374;-80
2021/08/03 08:45:14;;;;;;;8.80;7.57;;;19.20;1.00;;;;;;5013009;28;20931;-79
2021/08/03 08:48:14;;;;;;;11.13;8.53;;;19.10;1.00;;;;;;5013639;28;20403;-79
2021/08/03 08:50:45;;;;;;;13.90;8.73;;;19.10;1.00;;;;;;5030350;28;20808;-79
2021/08/03 08:53:11;;;;;;;12.27;8.50;;;19.20;1.00;;;;;;5013000;28;20502;-79
2021/08/03 08:55:37;;;;;;;11.23;9.20;;;19.20;1.00;;;;;;5031202;28;20453;-79
2021/08/03 08:58:08;;;;;;;14.90;9.07;;;19.30;1.00;;;;;;5031013;28;20941;-80
2021/08/03 09:01:19;;;;;;;12.27;9.67;;;19.30;1.00;;;;;;5024011;28;20464;-82
2021/08/03 09:03:56;;;;;;;13.60;9.00;;;19.30;1.00;;;;;;5032107;28;20431;-74
2021/08/03 09:06:26;;;;;;;13.37;9.60;;;19.40;1.00;;;;;;5033001;28;20400;-74
2021/08/03 09:09:13;;;;;;;11.57;9.10;;;19.40;1.00;;;;;;5025135;28;20415;-75
2021/08/03 09:11:47;;;;;;;11.27;9.03;;;19.50;1.00;;;;;;5016652;28;20397;-77
2021/08/03 09:14:50;;;;;;;14.00;9.40;;;19.60;1.00;;;;;;5021673;28;20393;-77
2021/08/03 09:17:36;;;;;;;11.13;8.90;;;19.80;1.00;;;;;;5037457;28;20408;-83
2021/08/03 09:20:13;;;;;;;18.90;10.07;;;19.60;1.00;;;;;;5036974;28;20415;-84
2021/08/03 09:22:48;;;;;;;12.70;9.53;;;19.50;1.00;;;;;;5036637;28;20418;-84
2021/08/03 09:25:17;;;;;;;10.00;8.83;;;19.50;1.00;;;;;;5033156;28;20406;-84
2021/08/03 09:27:47;;;;;;;11.60;8.80;;;19.50;1.00;;;;;;5031032;28;21037;-85
2021/08/03 09:30:20;;;;;;;13.13;9.00;;;19.50;1.00;;;;;;5036689;28;20407;-84
2021/08/03 09:32:50;;;;;;;10.20;8.53;;;19.60;1.00;;;;;;5036878;28;20402;-78
2021/08/03 09:35:55;;;;;;;11.87;8.27;;;19.90;1.00;;;;;;5036229;28;20822;-78
2021/08/03 09:38:44;;;;;;;9.03;7.43;;;20.00;1.00;;;;;;5036626;28;20433;-77
2021/08/03 09:41:20;;;;;;;11.87;8.00;;;20.00;1.00;;;;;;5036688;28;20399;-77
2021/08/03 09:44:20;;;;;;;14.13;7.50;;;20.10;1.00;;;;;;5036278;28;20931;-77
2021/08/03 09:46:56;;;;;;;10.03;6.40;;;20.30;1.00;;;;;;5036688;28;20363;-82
2021/08/03 09:49:48;;;;;;;7.60;6.30;;;20.30;1.00;;;;;;5036347;28;20387;-77
2021/08/03 09:52:16;;;;;;;8.80;5.77;;;20.50;1.00;;;;;;5036013;28;20396;-77
2021/08/03 09:54:44;;;;;;;7.63;5.87;;;20.50;1.00;;;;;;5016177;28;20482;-78
2021/08/03 09:57:38;;;;;;;7.27;5.60;;;20.70;1.00;;;;;;5016270;28;20496;-78
2021/08/03 10:00:29;;;;;;;6.80;5.30;;;20.70;1.00;;;;;;5034828;28;20426;-78
2021/08/03 10:03:14;;;;;;;5.20;4.60;;;20.60;1.00;;;;;;5034787;28;20398;-84
2021/08/03 10:05:50;;;;;;;6.50;4.70;;;20.60;1.00;;;;;;5035865;28;20409;-83
2021/08/03 10:08:51;;;;;;;5.73;4.10;;;20.80;1.00;;;;;;5034997;28;20415;-84
2021/08/03 10:11:21;;;;;;;5.23;4.17;;;20.70;1.00;;;;;;5036163;28;20476;-84
2021/08/03 10:13:51;;;;;;;6.37;4.20;;;20.40;1.00;;;;;;5034711;28;20391;-81
2021/08/03 10:16:18;;;;;;;5.30;3.80;;;20.40;1.00;;;;;;5030432;28;20470;-81
2021/08/03 10:18:53;;;;;;;4.33;3.80;;;20.40;1.00;;;;;;5033745;28;20395;-81
2021/08/03 10:22:10;;;;;;;4.50;3.43;;;20.50;1.00;;;;;;5031368;28;20418;-81
2021/08/03 10:25:02;;;;;;;2.97;2.70;;;20.50;1.00;;;;;;4970173;28;20434;-81
2021/08/03 10:28:20;;;;;;;4.03;2.70;;;20.50;1.00;;;;;;4971341;28;20457;-81
2021/08/03 10:31:20;;;;;;;3.03;2.37;;;20.50;1.00;;;;;;4967660;28;20453;-80
2021/08/03 10:33:50;;;;;;;1.87;1.77;;;20.70;1.00;;;;;;4974100;28;20469;-77
2021/08/03 10:36:40;;;;;;;4.20;2.13;;;20.80;1.00;;;;;;4971697;28;20493;-77
2021/08/03 10:39:20;;;;;;;2.50;2.03;;;20.90;1.00;;;;;;4971522;28;20935;-77
2021/08/03 10:42:06;;;;;;;2.13;1.43;;;21.00;1.00;;;;;;4974441;28;20411;-77
2021/08/03 10:44:42;;;;;;;1.50;1.40;;;21.20;1.00;;;;;;4955460;29;20396;-77
2021/08/03 10:47:49;;;;;;;2.10;1.10;;;21.40;1.00;;;;;;4954720;29;20420;-77
2021/08/03 10:50:36;;;;;;;4.43;1.43;;;21.80;1.00;;;;;;4968447;28;20483;-81
2021/08/03 10:53:20;;;;;;;1.10;1.00;;;21.80;1.00;;;;;;4974019;28;20469;-81
2021/08/03 10:56:05;;;;;;;1.73;1.17;;;21.80;1.00;;;;;;4974398;28;20467;-82
2021/08/03 10:58:38;;;;;;;1.10;1.00;;;21.80;1.00;;;;;;4973122;28;20430;-81
2021/08/03 11:01:03;;;;;;;0.90;0.90;;;21.60;1.00;;;;;;5005369;28;20941;-81
2021/08/03 11:04:19;;;;;;;1.50;0.90;;;21.60;1.00;;;;;;5035107;28;20417;-80
2021/08/03 11:07:22;;;;;;;4.93;1.27;;;21.80;1.00;;;;;;5029288;28;20176;-81
2021/08/03 11:09:51;;;;;;;1.20;1.20;;;22.00;1.00;;;;;;5023409;28;20456;-81
2021/08/03 11:12:51;;;;;;;3.43;1.00;;;22.10;1.00;;;;;;5034331;28;20819;-81
2021/08/03 11:15:50;;;;;;;2.70;1.20;;;22.00;1.00;;;;;;5034395;28;20463;-81
2021/08/03 11:18:41;;;;;;;1.40;1.30;;;21.90;1.00;;;;;;5034842;28;20390;-77
2021/08/03 11:21:38;;;;;;;3.40;1.40;;;22.00;1.00;;;;;;5015046;28;20478;-77
2021/08/03 11:24:15;;;;;;;1.43;1.17;;;22.00;1.00;;;;;;5020466;28;20409;-77
2021/08/03 11:27:08;;;;;;;2.10;1.30;;;22.20;1.00;;;;;;5034825;28;20420;-77
2021/08/03 11:29:40;;;;;;;1.03;1.03;;;22.20;1.00;;;;;;5014641;28;20742;-77
2021/08/03 11:32:50;;;;;;;1.10;1.10;;;22.50;1.00;;;;;;5032291;28;20430;-77
2021/08/03 11:35:44;;;;;;;1.20;1.10;;;22.50;1.00;;;;;;5025243;28;20449;-77
2021/08/03 11:38:24;;;;;;;2.50;1.50;;;22.60;1.00;;;;;;5014965;28;20896;-77
2021/08/03 11:40:57;;;;;;;1.37;1.10;;;22.70;1.00;;;;;;5024275;28;20408;-77
2021/08/03 11:43:32;;;;;;;1.47;1.37;;;22.70;1.00;;;;;;5014596;28;20756;-77
2021/08/03 11:46:09;;;;;;;1.43;1.33;;;22.80;1.00;;;;;;5017607;28;20412;-77
2021/08/03 11:48:34;;;;;;;1.70;1.60;;;23.00;1.00;;;;;;5031085;28;20417;-78
2021/08/03 11:51:02;;;;;;;1.53;1.43;;;23.00;1.00;;;;;;5023687;28;20929;-77
2021/08/03 11:53:50;;;;;;;3.13;1.50;;;22.90;1.00;;;;;;5015302;28;20164;-77
2021/08/03 11:56:29;;;;;;;1.57;1.47;;;22.90;1.00;;;;;;5033970;28;20958;-77
2021/08/03 11:59:01;;;;;;;1.50;1.40;;;23.20;1.00;;;;;;5026966;28;20495;-77
2021/08/03 12:01:48;;;;;;;7.60;1.53;;;23.20;1.00;;;;;;5020192;28;20433;-77
2021/08/03 12:04:16;;;;;;;1.60;1.50;;;23.10;1.00;;;;;;5033180;28;20426;-76
2021/08/03 12:06:43;;;;;;;1.37;1.27;;;23.10;1.00;;;;;;5033744;28;20413;-77
2021/08/03 12:09:11;;;;;;;2.30;2.10;;;23.50;1.00;;;;;;5033570;28;20394;-80
2021/08/03 12:11:37;;;;;;;2.03;1.93;;;23.50;1.00;;;;;;5032298;28;20432;-81
2021/08/03 12:14:50;;;;;;;1.83;1.73;;;23.40;1.00;;;;;;5033568;28;20415;-81
2021/08/03 12:18:00;;;;;;;2.23;1.70;;;23.50;1.00;;;;;;5033627;28;20882;-81
2021/08/03 12:20:38;;;;;;;1.70;1.60;;;23.80;1.00;;;;;;5026521;28;20420;-77
2021/08/03 12:23:18;;;;;;;2.23;1.70;;;23.80;1.00;;;;;;5013966;28;20410;-77
2021/08/03 12:26:00;;;;;;;2.43;1.80;;;23.90;1.00;;;;;;5014027;28;20477;-76
2021/08/03 12:28:39;;;;;;;1.43;1.33;;;23.90;1.00;;;;;;5012075;28;20419;-76
2021/08/03 12:31:15;;;;;;;1.60;1.13;;;23.90;1.00;;;;;;5013972;28;20389;-76
2021/08/03 12:33:45;;;;;;;1.50;1.40;;;23.80;1.00;;;;;;5029174;28;20495;-77
2021/08/03 12:36:20;;;;;;;2.30;1.27;;;23.80;1.00;;;;;;5017748;28;20448;-77
2021/08/03 12:39:37;;;;;;;1.47;1.37;;;23.80;1.00;;;;;;5033993;28;20458;-77
2021/08/03 12:45:14;;;;;;;1.30;1.20;;;24.30;1.00;;;;;;5000758;28;20937;-77
2021/08/03 12:47:58;;;;;;;1.57;1.40;;;24.30;1.00;;;;;;5004762;28;20488;-82
2021/08/03 12:50:25;;;;;;;1.60;1.43;;;23.90;1.00;;;;;;5016074;28;20489;-77
2021/08/03 12:53:03;;;;;;;2.53;1.30;;;23.90;1.00;;;;;;5015647;28;20884;-77
2021/08/03 12:56:44;;;;;;;1.70;1.60;;;23.90;1.00;;;;;;5015693;28;20507;-77
2021/08/03 12:59:50;;;;;;;2.47;1.40;;;23.90;1.00;;;;;;4969852;28;20492;-77
2021/08/03 13:02:56;;;;;;;3.37;1.80;;;23.60;1.00;;;;;;4958830;28;20421;-77
2021/08/03 13:12:20;;;;;;;1.23;1.13;;;23.20;1.00;;;;;;4975789;28;20449;-81
2021/08/03 13:15:02;;;;;;;1.30;1.20;;;23.20;1.00;;;;;;4975916;28;20445;-81
2021/08/03 13:17:45;;;;;;;1.33;1.23;;;23.30;1.00;;;;;;4970718;28;20795;-82
2021/08/03 13:24:14;;;;;;;1.50;1.40;;;23.50;1.00;;;;;;4993957;28;20924;-81
2021/08/03 13:27:08;;;;;;;1.20;1.10;;;23.70;1.00;;;;;;4975908;28;20403;-81
2021/08/03 13:32:55;;;;;;;2.17;1.77;;;23.70;1.00;;;;;;4993763;28;20418;-81
2021/08/03 13:35:32;;;;;;;1.43;1.00;;;23.80;1.00;;;;;;5030695;28;20476;-81
2021/08/03 13:38:37;;;;;;;1.30;1.30;;;23.90;1.00;;;;;;5036438;28;20198;-82
2021/08/03 13:45:02;;;;;;;1.47;1.37;;;24.40;1.00;;;;;;5036157;28;20448;-81
2021/08/03 13:48:02;;;;;;;3.03;1.43;;;24.40;1.00;;;;;;5035185;28;20792;-81
2021/08/03 13:50:28;;;;;;;4.00;1.43;;;24.30;1.00;;;;;;5036475;28;20417;-77
2021/08/03 13:53:14;;;;;;;1.20;1.10;;;24.30;1.00;;;;;;5036166;28;20907;-80
2021/08/03 13:55:56;;;;;;;2.03;1.10;;;24.30;1.00;;;;;;5025106;28;20830;-79
2021/08/03 13:59:03;;;;;;;1.33;1.10;;;24.60;1.00;;;;;;5033120;28;20441;-79
2021/08/03 14:01:56;;;;;;;1.00;1.00;;;24.60;1.00;;;;;;5036007;28;20459;-79
2021/08/03 14:04:33;;;;;;;1.30;1.20;;;24.70;1.00;;;;;;5036236;28;20400;-81
2021/08/03 14:07:32;;;;;;;0.90;0.90;;;24.80;1.00;;;;;;5035842;28;20469;-81
2021/08/03 14:10:14;;;;;;;0.97;0.90;;;24.80;1.00;;;;;;5035686;28;20397;-81
2021/08/03 14:13:02;;;;;;;1.03;0.97;;;25.10;1.00;;;;;;5035797;28;20489;-81
2021/08/03 14:16:06;;;;;;;5.90;1.03;;;25.30;1.00;;;;;;5035432;28;20456;-81
2021/08/03 14:19:02;;;;;;;0.90;0.90;;;25.30;1.00;;;;;;5035695;28;20385;-81
2021/08/03 14:21:32;;;;;;;0.90;0.80;;;25.60;1.00;;;;;;5029618;28;20414;-82
2021/08/03 14:24:26;;;;;;;1.27;1.00;;;25.80;1.00;;;;;;5030538;28;20428;-76
2021/08/03 14:27:02;;;;;;;0.70;0.70;;;25.70;1.00;;;;;;5035484;28;20450;-76
2021/08/03 14:29:35;;;;;;;0.83;0.83;;;25.60;1.00;;;;;;5035273;28;20447;-77
2021/08/03 14:32:05;;;;;;;1.53;0.87;;;25.60;1.00;;;;;;5035038;28;20925;-82
2021/08/03 14:35:02;;;;;;;2.60;0.80;;;25.80;1.00;;;;;;5034929;28;20421;-80
2021/08/03 14:37:56;;;;;;;1.33;0.80;;;25.70;1.00;;;;;;5035282;28;20438;-77
2021/08/03 14:41:08;;;;;;;1.77;0.80;;;25.80;1.00;;;;;;5033465;28;20960;-76
2021/08/03 14:43:33;;;;;;;1.10;0.87;;;26.20;1.00;;;;;;5034822;28;20425;-76
2021/08/03 14:46:14;;;;;;;0.70;0.70;;;26.20;1.00;;;;;;5029708;28;20414;-78
2021/08/03 14:48:50;;;;;;;0.90;0.90;;;26.40;1.00;;;;;;5023405;28;20178;-75
2021/08/03 14:51:16;;;;;;;0.83;0.83;;;26.20;1.00;;;;;;5027606;28;20431;-73
2021/08/03 14:53:42;;;;;;;2.17;0.90;;;26.20;1.00;;;;;;5029911;28;20421;-73
2021/08/03 14:56:08;;;;;;;0.90;0.80;;;26.20;1.00;;;;;;5032869;28;20207;-73
2021/08/03 14:58:38;;;;;;;0.63;0.63;;;26.20;1.00;;;;;;5033428;28;20440;-73
2021/08/03 15:01:05;;;;;;;0.80;0.70;;;26.60;1.00;;;;;;5035343;28;20218;-78